createdAt,value
2023-04-28T00:00:24.997Z,3.5
2023-04-28T00:03:25.077Z,3.5
2023-04-28T00:06:25.038Z,3.5
2023-04-28T00:09:25.048Z,3.4
2023-04-28T00:12:25.046Z,3.4
2023-04-28T00:15:25.047Z,3.4
2023-04-28T00:18:25.128Z,3.3
2023-04-28T00:21:25.054Z,3.3
2023-04-28T00:24:25.059Z,3.3
2023-04-28T00:27:25.055Z,3.2
2023-04-28T00:30:25.063Z,3.3
2023-04-28T00:33:25.071Z,3.2
2023-04-28T00:36:25.082Z,3.2
2023-04-28T00:39:25.101Z,3.1
2023-04-28T00:42:25.078Z,3.1
2023-04-28T00:45:25.091Z,3.2
2023-04-28T00:48:25.100Z,3.2
2023-04-28T00:51:25.088Z,3.2
2023-04-28T00:54:25.103Z,3.2
2023-04-28T00:57:25.093Z,3.2
2023-04-28T01:00:25.090Z,3.3
2023-04-28T01:03:25.184Z,3.3
2023-04-28T01:06:25.092Z,3.3
2023-04-28T01:09:25.105Z,3.3
2023-04-28T01:12:25.106Z,3.3
2023-04-28T01:15:25.102Z,3.3
2023-04-28T01:18:25.101Z,3.3
2023-04-28T01:21:25.106Z,3.3
2023-04-28T01:24:25.116Z,3.3
2023-04-28T01:27:25.105Z,3.4
2023-04-28T01:30:25.122Z,3.3
2023-04-28T01:33:25.111Z,3.4
2023-04-28T01:36:25.108Z,3.4
2023-04-28T01:39:25.126Z,3.3
2023-04-28T01:42:25.120Z,3.3
2023-04-28T01:45:25.113Z,3.3
2023-04-28T01:48:25.112Z,3.3
2023-04-28T01:51:25.112Z,3.2
2023-04-28T01:54:25.127Z,3.2
2023-04-28T01:57:25.125Z,3.1
2023-04-28T02:00:25.122Z,3
2023-04-28T02:03:25.253Z,3
2023-04-28T02:06:25.118Z,3
2023-04-28T02:09:25.129Z,3
2023-04-28T02:12:25.130Z,3
2023-04-28T02:15:25.128Z,2.9
2023-04-28T02:18:25.128Z,2.9
2023-04-28T02:21:25.133Z,2.8
2023-04-28T02:24:25.150Z,2.8
2023-04-28T02:27:25.136Z,2.8
2023-04-28T02:30:25.129Z,2.8
2023-04-28T02:33:25.138Z,2.8
2023-04-28T02:36:25.135Z,2.7
2023-04-28T02:39:25.150Z,2.8
2023-04-28T02:42:25.145Z,2.8
2023-04-28T02:45:25.149Z,2.7
2023-04-28T02:48:25.146Z,2.8
2023-04-28T02:51:25.151Z,2.8
2023-04-28T02:54:25.176Z,2.8
2023-04-28T02:57:25.158Z,2.9
2023-04-28T03:00:25.168Z,2.9
2023-04-28T03:03:25.277Z,3
2023-04-28T03:06:25.157Z,3
2023-04-28T03:09:25.169Z,3.1
2023-04-28T03:12:25.162Z,3.1
2023-04-28T03:15:25.174Z,3.1
2023-04-28T03:18:25.173Z,3.1
2023-04-28T03:21:25.171Z,3.1
2023-04-28T03:24:25.178Z,3.1
2023-04-28T03:27:25.169Z,3.1
2023-04-28T03:30:25.171Z,3.1
2023-04-28T03:33:25.172Z,3.1
2023-04-28T03:36:25.167Z,3.1
2023-04-28T03:39:25.176Z,3.1
2023-04-28T03:42:25.174Z,3.1
2023-04-28T03:45:25.183Z,3.1
2023-04-28T03:48:25.235Z,3.1
2023-04-28T03:51:25.177Z,3.1
2023-04-28T03:54:25.197Z,3.1
2023-04-28T03:57:25.183Z,3.2
2023-04-28T04:00:25.185Z,3.3
2023-04-28T04:03:25.350Z,3.4
2023-04-28T04:06:25.184Z,3.5
2023-04-28T04:09:25.202Z,3.6
2023-04-28T04:12:25.185Z,3.7
2023-04-28T04:15:25.191Z,3.8
2023-04-28T04:18:25.188Z,3.9
2023-04-28T04:21:25.192Z,3.9
2023-04-28T04:24:25.208Z,3.9
2023-04-28T04:27:25.196Z,4
2023-04-28T04:30:25.199Z,4.1
2023-04-28T04:33:25.202Z,4.1
2023-04-28T04:36:25.232Z,4.1
2023-04-28T04:39:25.214Z,4.1
2023-04-28T04:42:25.950Z,4.2
2023-04-28T04:45:25.207Z,4.2
2023-04-28T04:48:25.205Z,4.2
2023-04-28T04:51:25.209Z,4.2
2023-04-28T04:54:25.226Z,4.2
2023-04-28T04:57:25.216Z,4.2
2023-04-28T05:00:25.218Z,4.3
2023-04-28T05:03:25.320Z,4.3
2023-04-28T05:06:25.229Z,4.4
2023-04-28T05:09:25.230Z,4.4
2023-04-28T05:12:25.219Z,4.5
2023-04-28T05:15:25.224Z,4.6
2023-04-28T05:18:25.231Z,4.7
2023-04-28T05:21:25.236Z,4.8
2023-04-28T05:24:25.259Z,5
2023-04-28T05:27:25.240Z,5.1
2023-04-28T05:30:25.250Z,5.2
2023-04-28T05:33:25.254Z,5.3
2023-04-28T05:36:25.256Z,5.5
2023-04-28T05:39:25.265Z,5.6
2023-04-28T05:42:25.250Z,5.7
2023-04-28T05:45:25.253Z,5.8
2023-04-28T05:48:25.253Z,5.9
2023-04-28T05:51:25.252Z,6.2
2023-04-28T05:54:25.298Z,6.4
2023-04-28T05:57:25.276Z,6.8
2023-04-28T06:00:25.333Z,7.2
2023-04-28T06:03:25.511Z,7.6
2023-04-28T06:06:25.403Z,8.1
2023-04-28T06:09:25.350Z,8.4
2023-04-28T06:12:25.355Z,8.5
2023-04-28T06:15:25.394Z,8.5
2023-04-28T06:18:25.351Z,8.7
2023-04-28T06:21:25.421Z,9
2023-04-28T06:24:25.451Z,9.4
2023-04-28T06:27:25.414Z,9.9
2023-04-28T06:30:25.445Z,10.4
2023-04-28T06:33:25.421Z,10.7
2023-04-28T06:36:25.415Z,11.1
2023-04-28T06:39:25.422Z,11.4
2023-04-28T06:42:26.877Z,11.5
2023-04-28T06:45:25.416Z,11.7
2023-04-28T06:48:25.430Z,12
2023-04-28T06:51:25.420Z,12.4
2023-04-28T06:54:25.431Z,12.6
2023-04-28T06:57:25.423Z,12.9
2023-04-28T07:00:25.471Z,13.2
2023-04-28T07:03:25.483Z,13.3
2023-04-28T07:06:25.444Z,13.3
2023-04-28T07:09:25.445Z,13.4
2023-04-28T07:12:25.468Z,13.5
2023-04-28T07:15:25.438Z,13.7
2023-04-28T07:18:25.435Z,14
2023-04-28T07:21:25.442Z,14.4
2023-04-28T07:24:25.472Z,14.6
2023-04-28T07:27:25.442Z,14.5
2023-04-28T07:30:27.118Z,14.3
2023-04-28T07:33:25.456Z,14.2
2023-04-28T07:36:25.453Z,14.5
2023-04-28T07:39:25.469Z,14.9
2023-04-28T07:42:25.470Z,15.1
2023-04-28T07:45:25.460Z,15.3
2023-04-28T07:48:25.467Z,15.3
2023-04-28T07:51:25.464Z,15.1
2023-04-28T07:54:25.495Z,14.9
2023-04-28T07:57:25.470Z,14.6
2023-04-28T08:00:25.526Z,14.6
2023-04-28T08:03:25.549Z,14.7
2023-04-28T08:06:25.478Z,14.7
2023-04-28T08:09:25.490Z,14.6
2023-04-28T08:12:25.483Z,14.4
2023-04-28T08:15:25.497Z,14.2
2023-04-28T08:18:25.488Z,14.1
2023-04-28T08:21:25.505Z,14.2
2023-04-28T08:24:25.505Z,14.1
2023-04-28T08:27:25.505Z,14.2
2023-04-28T08:30:25.499Z,14.3
2023-04-28T08:33:25.500Z,14.4
2023-04-28T08:36:25.524Z,14.6
2023-04-28T08:39:25.520Z,14.8
2023-04-28T08:42:25.528Z,15
2023-04-28T08:45:26.776Z,15.1
2023-04-28T08:48:25.518Z,15.2
2023-04-28T08:51:25.659Z,15.2
2023-04-28T08:54:26.827Z,15.2
2023-04-28T08:57:25.556Z,15.2
2023-04-28T09:00:25.544Z,15.2
2023-04-28T09:03:25.645Z,15.3
2023-04-28T09:06:25.568Z,15.4
2023-04-28T09:09:25.586Z,15.5
2023-04-28T09:12:25.554Z,15.6
2023-04-28T09:15:25.573Z,15.5
2023-04-28T09:18:25.562Z,15.6
2023-04-28T09:21:25.569Z,15.6
2023-04-28T09:24:25.596Z,15.9
2023-04-28T09:27:25.580Z,16.2
2023-04-28T09:30:25.596Z,16.3
2023-04-28T09:33:25.652Z,16.7
2023-04-28T09:36:25.609Z,17.3
2023-04-28T09:39:25.617Z,18
2023-04-28T09:42:25.637Z,18.4
2023-04-28T09:45:25.622Z,18.8
2023-04-28T09:48:25.628Z,18.9
2023-04-28T09:51:25.651Z,18.5
2023-04-28T09:54:25.655Z,18.2
2023-04-28T09:57:25.640Z,18
2023-04-28T10:00:25.650Z,17.7
2023-04-28T10:03:27.710Z,17.5
2023-04-28T10:06:25.665Z,17.3
2023-04-28T10:09:25.670Z,17
2023-04-28T10:12:25.675Z,16.9
2023-04-28T10:15:25.677Z,16.7
2023-04-28T10:18:25.685Z,16.5
2023-04-28T10:21:25.686Z,16.2
2023-04-28T10:24:25.707Z,16.1
2023-04-28T10:27:25.702Z,16
2023-04-28T10:30:28.542Z,16.1
2023-04-28T10:33:26.012Z,16.1
2023-04-28T10:36:33.619Z,16.3
2023-04-28T10:39:25.718Z,16.4
2023-04-28T10:42:25.732Z,16.4
2023-04-28T10:45:25.722Z,16.3
2023-04-28T10:48:25.730Z,16.3
2023-04-28T10:51:25.745Z,16.2
2023-04-28T10:54:25.753Z,16.1
2023-04-28T10:57:25.750Z,16.1
2023-04-28T11:00:25.751Z,16.1
2023-04-28T11:03:25.857Z,16.1
2023-04-28T11:06:25.789Z,16
2023-04-28T11:09:25.796Z,15.9
2023-04-28T11:12:25.776Z,15.8
2023-04-28T11:15:25.774Z,15.7
2023-04-28T11:18:25.783Z,15.5
2023-04-28T11:21:25.801Z,15.4
2023-04-28T11:24:25.814Z,15.3
2023-04-28T11:27:25.801Z,15.3
2023-04-28T11:30:25.799Z,15.3
2023-04-28T11:33:25.808Z,15.4
2023-04-28T11:36:25.812Z,15.4
2023-04-28T11:39:25.855Z,15.5
2023-04-28T11:42:25.821Z,15.6
2023-04-28T11:45:25.836Z,15.6
2023-04-28T11:48:25.842Z,15.6
2023-04-28T11:51:25.850Z,15.5
2023-04-28T11:54:25.863Z,15.3
2023-04-28T11:57:25.871Z,15.3
2023-04-28T12:00:25.875Z,15.3
2023-04-28T12:03:25.979Z,15.3
2023-04-28T12:06:25.887Z,15.2
2023-04-28T12:09:25.901Z,15.2
2023-04-28T12:15:25.899Z,15.3
2023-04-28T12:18:25.904Z,15.3
2023-04-28T12:21:25.913Z,15.2
2023-04-28T12:24:25.937Z,15.2
2023-04-28T12:27:25.933Z,15.2
2023-04-28T12:30:25.941Z,15.2
2023-04-28T12:33:26.016Z,15.2
2023-04-28T12:36:25.945Z,15.3
2023-04-28T12:39:25.978Z,15.3
2023-04-28T12:42:25.960Z,15.3
2023-04-28T12:45:25.969Z,15.2
2023-04-28T12:48:25.984Z,15.1
2023-04-28T12:51:26.011Z,14.9
2023-04-28T12:54:26.013Z,14.7
2023-04-28T12:57:25.984Z,14.6
2023-04-28T13:00:25.997Z,14.5
2023-04-28T13:03:26.117Z,14.5
2023-04-28T13:06:25.988Z,14.5
2023-04-28T13:09:25.998Z,14.5
2023-04-28T13:12:26.046Z,14.5
2023-04-28T13:15:26.004Z,14.5
2023-04-28T13:18:26.009Z,14.5
2023-04-28T13:21:26.021Z,14.4
2023-04-28T13:24:26.109Z,14.3
2023-04-28T13:27:26.023Z,14.2
2023-04-28T13:30:26.022Z,14.1
2023-04-28T13:33:26.032Z,14
2023-04-28T13:36:26.035Z,13.9
2023-04-28T13:39:26.028Z,13.9
2023-04-28T13:42:26.042Z,13.8
2023-04-28T13:45:26.061Z,13.7
2023-04-28T13:48:26.042Z,13.6
2023-04-28T13:51:26.045Z,13.6
2023-04-28T13:54:26.048Z,13.7
2023-04-28T13:57:26.051Z,13.6
2023-04-28T14:00:26.058Z,13.5
2023-04-28T14:03:26.156Z,13.5
2023-04-28T14:06:26.187Z,13.5
2023-04-28T14:09:26.094Z,13.5
2023-04-28T14:12:26.095Z,13.5
2023-04-28T14:15:26.101Z,13.5
2023-04-28T14:18:26.116Z,13.5
2023-04-28T14:21:26.121Z,13.5
2023-04-28T14:24:26.135Z,13.5
2023-04-28T14:27:26.140Z,13.5
2023-04-28T14:30:26.153Z,13.5
2023-04-28T14:33:26.155Z,13.6
2023-04-28T14:36:26.169Z,13.5
2023-04-28T14:39:26.223Z,13.6
2023-04-28T14:42:26.184Z,13.6
2023-04-28T14:45:26.197Z,13.6
2023-04-28T14:48:26.201Z,13.6
2023-04-28T14:51:26.231Z,13.7
2023-04-28T14:54:26.219Z,13.7
2023-04-28T14:57:26.227Z,13.9
2023-04-28T15:00:26.241Z,14
2023-04-28T15:03:26.350Z,14.2
2023-04-28T15:06:26.259Z,14.4
2023-04-28T15:09:26.270Z,14.5
2023-04-28T15:12:26.291Z,14.4
2023-04-28T15:15:26.288Z,14.3
2023-04-28T15:18:26.298Z,14.2
2023-04-28T15:21:26.303Z,14.2
2023-04-28T15:24:26.325Z,14.3
2023-04-28T15:27:26.330Z,14.5
2023-04-28T15:30:26.339Z,14.5
2023-04-28T15:33:26.361Z,14.5
2023-04-28T15:36:26.375Z,14.5
2023-04-28T15:39:26.376Z,14.5
2023-04-28T15:42:26.404Z,14.5
2023-04-28T15:45:26.537Z,14.4
2023-04-28T15:48:26.497Z,14.2
2023-04-28T15:51:26.491Z,14.2
2023-04-28T15:54:26.497Z,14.2
2023-04-28T15:57:26.495Z,14.2
2023-04-28T16:00:26.500Z,14.1
2023-04-28T16:03:26.598Z,14
2023-04-28T16:06:26.500Z,14
2023-04-28T16:09:26.506Z,14.1
2023-04-28T16:12:26.506Z,14.1
2023-04-28T16:15:26.702Z,14.1
2023-04-28T16:18:26.509Z,14
2023-04-28T16:21:26.519Z,13.9
2023-04-28T16:24:26.516Z,13.9
2023-04-28T16:27:26.516Z,13.8
2023-04-28T16:30:26.530Z,13.8
2023-04-28T16:33:26.541Z,13.8
2023-04-28T16:36:26.529Z,13.8
2023-04-28T16:39:26.532Z,13.8
2023-04-28T16:42:26.526Z,13.7
2023-04-28T16:45:26.528Z,13.5
2023-04-28T16:48:26.524Z,13.4
2023-04-28T16:51:26.531Z,13.4
2023-04-28T16:54:26.519Z,13.4
2023-04-28T16:57:26.532Z,13.4
2023-04-28T17:00:26.538Z,13.5
2023-04-28T17:03:26.574Z,13.5
2023-04-28T17:06:26.550Z,13.4
2023-04-28T17:09:26.543Z,13.3
2023-04-28T17:12:26.556Z,13.1
2023-04-28T17:15:26.545Z,13
2023-04-28T17:18:26.559Z,12.8
2023-04-28T17:21:26.568Z,12.6
2023-04-28T17:24:26.558Z,12.5
2023-04-28T17:27:26.559Z,12.5
2023-04-28T17:30:26.563Z,12.5
2023-04-28T17:33:26.469Z,12.4
2023-04-28T17:36:26.477Z,12.4
2023-04-28T17:39:26.453Z,12.4
2023-04-28T17:42:26.437Z,12.4
2023-04-28T17:45:26.420Z,12.3
2023-04-28T17:48:26.398Z,12.3
2023-04-28T17:51:26.393Z,12.3
2023-04-28T17:54:26.361Z,12.2
2023-04-28T17:57:26.594Z,12.2
2023-04-28T18:00:26.550Z,12.1
2023-04-28T18:03:26.643Z,12.1
2023-04-28T18:06:26.461Z,12.1
2023-04-28T18:09:26.463Z,12.1
2023-04-28T18:12:26.480Z,12.1
2023-04-28T18:15:26.491Z,12.1
2023-04-28T18:18:28.005Z,12
2023-04-28T18:21:26.479Z,11.9
2023-04-28T18:24:26.462Z,11.9
2023-04-28T18:27:26.461Z,11.8
2023-04-28T18:30:26.460Z,11.7
2023-04-28T18:33:26.444Z,11.6
2023-04-28T18:36:26.464Z,11.6
2023-04-28T18:39:26.482Z,11.5
2023-04-28T18:42:26.494Z,11.4
2023-04-28T18:45:26.511Z,11.3
2023-04-28T18:48:26.505Z,11.3
2023-04-28T18:51:26.512Z,11.2
2023-04-28T18:54:26.511Z,11.2
2023-04-28T18:57:26.520Z,11.2
2023-04-28T19:00:26.528Z,11.2
2023-04-28T19:03:26.724Z,11.2
2023-04-28T19:06:26.545Z,11.1
2023-04-28T19:09:26.547Z,11.1
2023-04-28T19:12:26.551Z,11.1
2023-04-28T19:15:26.556Z,11.1
2023-04-28T19:18:26.600Z,11.1
2023-04-28T19:21:26.570Z,11.1
2023-04-28T19:24:26.554Z,11
2023-04-28T19:27:26.572Z,11.1
2023-04-28T19:30:26.578Z,11
2023-04-28T19:33:28.114Z,11
2023-04-28T19:36:26.585Z,11
2023-04-28T19:39:28.749Z,11
2023-04-28T19:42:26.591Z,11.1
2023-04-28T19:45:26.632Z,11.1
2023-04-28T19:48:26.588Z,11.1
2023-04-28T19:51:26.591Z,11.1
2023-04-28T19:54:26.595Z,11.1
2023-04-28T19:57:26.597Z,11.1
2023-04-28T20:00:26.608Z,11.1
2023-04-28T20:03:26.767Z,11.1
2023-04-28T20:06:26.655Z,11
2023-04-28T20:09:26.674Z,11.1
2023-04-28T20:12:26.697Z,11
2023-04-28T20:15:26.706Z,11
2023-04-28T20:18:26.758Z,11
2023-04-28T20:21:26.736Z,11
2023-04-28T20:24:26.743Z,11
2023-04-28T20:27:26.748Z,11
2023-04-28T20:30:26.763Z,11
2023-04-28T20:33:26.765Z,11
2023-04-28T20:36:26.766Z,11
2023-04-28T20:39:26.769Z,11
2023-04-28T20:42:26.768Z,11
2023-04-28T20:45:26.766Z,11
2023-04-28T20:48:26.769Z,11
2023-04-28T20:51:26.774Z,11
2023-04-28T20:54:26.785Z,11
2023-04-28T20:57:26.782Z,11
2023-04-28T21:00:26.795Z,11
2023-04-28T21:03:26.865Z,10.9
2023-04-28T21:06:26.802Z,10.9
2023-04-28T21:09:26.843Z,10.8
2023-04-28T21:12:26.836Z,10.8
2023-04-28T21:15:26.839Z,10.8
2023-04-28T21:18:26.851Z,10.8
2023-04-28T21:21:26.858Z,10.7
2023-04-28T21:24:26.861Z,10.7
2023-04-28T21:27:27.049Z,10.7
2023-04-28T21:30:26.897Z,10.7
2023-04-28T21:33:26.901Z,10.7
2023-04-28T21:36:26.910Z,10.7
2023-04-28T21:39:26.932Z,10.7
2023-04-28T21:42:26.963Z,10.7
2023-04-28T21:45:26.939Z,10.7
2023-04-28T21:48:26.942Z,10.7
2023-04-28T21:51:26.940Z,10.7
2023-04-28T21:54:26.944Z,10.7
2023-04-28T21:57:26.951Z,10.7
2023-04-28T22:00:26.954Z,10.8
2023-04-28T22:03:27.065Z,10.8
2023-04-28T22:06:26.971Z,10.8
2023-04-28T22:09:26.977Z,10.8
2023-04-28T22:12:26.992Z,10.8
2023-04-28T22:15:27.009Z,10.8
2023-04-28T22:18:27.022Z,10.8
2023-04-28T22:21:27.073Z,10.8
2023-04-28T22:24:27.098Z,10.8
2023-04-28T22:27:27.150Z,10.9
2023-04-28T22:30:27.160Z,10.9
2023-04-28T22:33:27.161Z,11
2023-04-28T22:36:27.196Z,11.1
2023-04-28T22:39:27.204Z,11.1
2023-04-28T22:42:27.220Z,11.1
2023-04-28T22:45:27.209Z,11.2
2023-04-28T22:48:27.227Z,11.3
2023-04-28T22:51:27.223Z,11.3
2023-04-28T22:54:27.259Z,11.4
2023-04-28T22:57:27.238Z,11.5
2023-04-28T23:00:27.241Z,11.5
2023-04-28T23:03:27.289Z,11.5
2023-04-28T23:06:27.249Z,11.6
2023-04-28T23:09:27.248Z,11.6
2023-04-28T23:12:27.242Z,11.6
2023-04-28T23:15:27.216Z,11.6
2023-04-28T23:18:27.216Z,11.7
2023-04-28T23:21:27.208Z,11.7
2023-04-28T23:24:27.359Z,11.7
2023-04-28T23:27:27.225Z,11.7
2023-04-28T23:30:27.206Z,11.7
2023-04-28T23:33:27.213Z,11.7
2023-04-28T23:36:27.225Z,11.7
2023-04-28T23:39:27.228Z,11.8
2023-04-28T23:42:27.247Z,11.8
2023-04-28T23:45:27.269Z,11.8
2023-04-28T23:48:27.242Z,11.8
2023-04-28T23:51:27.240Z,11.8
2023-04-28T23:54:27.234Z,11.7
2023-04-28T23:57:27.247Z,11.8
